Time;durP1;ratioP1;P1;durP2;ratioP2;P2;SDS_P1;SDS_P2;PMS_P1;PMS_P2;Temp;Humidity;BMP_temperature;BMP_pressure;BME280_temperature;BME280_humidity;BME280_pressure;Samples;Min_cycle;Max_cycle;Signal;HPM_P1;HPM_P2
2022/05/02 00:02:46;;;;;;;;;;;;;;;;;;10394039;28;20571;-73
2022/05/02 00:07:49;;;;;;;54.22;19.35;;;;;;;;;;10410414;28;19970;-73
2022/05/02 00:12:54;;;;;;;52.30;19.87;;;;;;;;;;10390422;28;20492;-73
2022/05/02 00:17:59;;;;;;;51.03;18.95;;;;;;;;;;10397778;28;20045;-74
2022/05/02 00:23:04;;;;;;;50.22;20.10;;;;;;;;;;10390934;28;20065;-73
2022/05/02 00:28:12;;;;;;;50.20;19.27;;;;;;;;;;10399611;28;20064;-73
2022/05/02 00:33:15;;;;;;;50.13;19.30;;;;;;;;;;10389922;28;20076;-73
2022/05/02 00:38:18;;;;;;;61.17;21.93;;;;;;;;;;10393831;28;20120;-75
2022/05/02 00:43:22;;;;;;;54.08;20.45;;;;;;;;;;10389769;28;20136;-72
2022/05/02 00:48:24;;;;;;;;;;;;;;;;;;10400222;28;20480;-73
2022/05/02 00:53:28;;;;;;;50.72;19.15;;;;;;;;;;10424057;28;20016;-72
2022/05/02 00:58:32;;;;;;;54.38;20.20;;;;;;;;;;10416311;28;20069;-72
2022/05/02 01:03:35;;;;;;;55.67;20.15;;;;;;;;;;10396087;28;20125;-71
2022/05/02 01:08:38;;;;;;;54.83;21.37;;;;;;;;;;10400057;28;20104;-72
2022/05/02 01:13:43;;;;;;;56.08;19.95;;;;;;;;;;10405961;28;20037;-72
2022/05/02 01:18:47;;;;;;;55.78;20.67;;;;;;;;;;10397889;28;20054;-72
2022/05/02 01:23:52;;;;;;;61.72;22.50;;;;;;;;;;10408007;28;20117;-73
2022/05/02 01:28:56;;;;;;;57.88;22.20;;;;;;;;;;10396596;28;20060;-73
2022/05/02 01:34:00;;;;;;;55.92;20.17;;;;;;;;;;10389478;28;20520;-74
2022/05/02 01:39:04;;;;;;;64.57;23.15;;;;;;;;;;10392633;28;20040;-72
2022/05/02 01:44:06;;;;;;;;;;;;;;;;;;10391456;28;20112;-73
2022/05/02 01:49:10;;;;;;;58.97;21.55;;;;;;;;;;10400976;28;20401;-72
2022/05/02 01:54:14;;;;;;;64.07;22.98;;;;;;;;;;10401501;28;20101;-73
2022/05/02 01:59:17;;;;;;;60.80;22.95;;;;;;;;;;10398247;28;20046;-72
2022/05/02 02:09:42;;;;;;;54.22;19.80;;;;;;;;;;10389340;28;20041;-70
2022/05/02 02:14:45;;;;;;;63.45;21.50;;;;;;;;;;10391147;28;20433;-73
2022/05/02 02:19:49;;;;;;;63.40;21.37;;;;;;;;;;10398947;28;20452;-73
2022/05/02 02:24:53;;;;;;;51.58;19.77;;;;;;;;;;10391788;28;20466;-73
2022/05/02 02:29:55;;;;;;;;;;;;;;;;;;10394399;28;20091;-72
2022/05/02 02:34:59;;;;;;;52.53;19.83;;;;;;;;;;10388219;28;19921;-73
2022/05/02 02:40:04;;;;;;;56.50;21.13;;;;;;;;;;10397886;28;20064;-74
2022/05/02 02:45:08;;;;;;;53.33;20.88;;;;;;;;;;10395704;28;20160;-73
2022/05/02 02:50:11;;;;;;;57.63;19.42;;;;;;;;;;10391515;28;20073;-73
2022/05/02 02:55:15;;;;;;;49.08;19.02;;;;;;;;;;10384020;28;20049;-73
2022/05/02 03:00:17;;;;;;;;;;;;;;;;;;10389200;28;20100;-72
2022/05/02 03:10:42;;;;;;;43.88;18.15;;;;;;;;;;10396821;28;20045;-73
2022/05/02 03:15:44;;;;;;;;;;;;;;;;;;10387839;28;20088;-73
2022/05/02 03:20:47;;;;;;;36.35;13.68;;;;;;;;;;10404783;28;19928;-72
2022/05/02 03:25:51;;;;;;;40.40;15.10;;;;;;;;;;10411889;28;20095;-73
2022/05/02 03:30:54;;;;;;;;;;;;;;;;;;10397037;28;20036;-73
2022/05/02 03:35:57;;;;;;;39.95;15.40;;;;;;;;;;10384282;28;19929;-73
2022/05/02 03:41:01;;;;;;;42.03;15.25;;;;;;;;;;10386982;28;20065;-74
2022/05/02 03:46:04;;;;;;;;;;;;;;;;;;10400364;28;20045;-73
2022/05/02 03:51:07;;;;;;;41.42;15.95;;;;;;;;;;10396590;28;20325;-73
2022/05/02 03:56:12;;;;;;;39.78;15.40;;;;;;;;;;10393741;28;20033;-73
2022/05/02 04:01:15;;;;;;;37.67;15.38;;;;;;;;;;10401646;28;20046;-73
2022/05/02 04:06:18;;;;;;;42.53;16.63;;;;;;;;;;10391117;28;20065;-73
2022/05/02 04:11:22;;;;;;;41.85;15.68;;;;;;;;;;10406212;28;20037;-73
2022/05/02 04:16:26;;;;;;;35.40;14.00;;;;;;;;;;10407111;28;20057;-71
2022/05/02 04:21:29;;;;;;;42.70;14.95;;;;;;;;;;10390320;28;20103;-73
2022/05/02 04:26:36;;;;;;;26.38;11.18;;;;;;;;;;10401607;28;20045;-74
2022/05/02 04:31:39;;;;;;;25.50;11.43;;;;;;;;;;10389252;28;20045;-72
2022/05/02 04:36:43;;;;;;;28.60;11.18;;;;;;;;;;10394644;28;20522;-72
2022/05/02 04:41:48;;;;;;;20.60;8.07;;;;;;;;;;10407367;28;20120;-73
2022/05/02 04:46:51;;;;;;;22.80;10.18;;;;;;;;;;10389830;28;20381;-73
2022/05/02 04:51:54;;;;;;;27.45;11.75;;;;;;;;;;10388591;28;20042;-73
2022/05/02 04:56:58;;;;;;;23.10;9.13;;;;;;;;;;10400199;28;20102;-74
2022/05/02 05:02:06;;;;;;;12.27;5.50;;;;;;;;;;10404371;28;20110;-73
2022/05/02 05:07:09;;;;;;;;;;;;;;;;;;10421365;28;20051;-72
2022/05/02 05:12:19;;;;;;;16.30;7.88;;;;;;;;;;10396279;28;20309;-70
2022/05/02 05:17:36;;;;;;;16.23;8.07;;;;;;;;;;10396924;28;20123;-74
2022/05/02 05:22:57;;;;;;;18.13;8.32;;;;;;;;;;10394297;28;20582;-71
2022/05/02 05:28:13;;;;;;;17.88;8.63;;;;;;;;;;10394916;28;20133;-72
2022/05/02 05:33:23;;;;;;;20.05;8.45;;;;;;;;;;10389502;28;20036;-73
2022/05/02 05:38:30;;;;;;;18.77;8.27;;;;;;;;;;10397145;28;20139;-73
2022/05/02 05:43:43;;;;;;;14.43;6.47;;;;;;;;;;10411361;28;20393;-73
2022/05/02 05:48:52;;;;;;;22.40;9.73;;;;;;;;;;10403396;28;20072;-72
2022/05/02 05:53:59;;;;;;;21.10;8.65;;;;;;;;;;10417088;28;20065;-73
2022/05/02 05:59:06;;;;;;;18.45;8.23;;;;;;;;;;10413520;28;20068;-72
2022/05/02 06:04:13;;;;;;;13.88;7.82;;;;;;;;;;10406342;28;20359;-72
2022/05/02 06:09:17;;;;;;;18.17;9.23;;;;;;;;;;10403019;28;20041;-72
2022/05/02 06:14:22;;;;;;;18.08;8.60;;;;;;;;;;10406958;28;20088;-73
2022/05/02 06:19:26;;;;;;;20.63;9.88;;;;;;;;;;10381805;28;20069;-74
2022/05/02 06:24:32;;;;;;;24.52;10.35;;;;;;;;;;10383312;28;20136;-73
2022/05/02 06:29:36;;;;;;;23.63;10.55;;;;;;;;;;10378624;28;20502;-72
2022/05/02 06:34:39;;;;;;;28.35;11.38;;;;;;;;;;10380525;28;20037;-73
2022/05/02 06:39:48;;;;;;;21.77;10.68;;;;;;;;;;10398109;28;20044;-72
2022/05/02 06:44:59;;;;;;;24.00;11.73;;;;;;;;;;10385063;28;20116;-72
2022/05/02 06:50:03;;;;;;;20.35;8.77;;;;;;;;;;10406939;28;20048;-74
2022/05/02 06:55:15;;;;;;;22.33;11.50;;;;;;;;;;10417409;28;20063;-74
2022/05/02 07:00:20;;;;;;;23.17;11.15;;;;;;;;;;10414589;28;20480;-74
2022/05/02 07:05:27;;;;;;;26.10;12.02;;;;;;;;;;10381056;28;20393;-73
2022/05/02 07:10:32;;;;;;;21.25;8.52;;;;;;;;;;10383410;28;20077;-73
2022/05/02 07:15:48;;;;;;;23.17;12.73;;;;;;;;;;10382481;28;20064;-74
2022/05/02 07:20:55;;;;;;;21.63;12.13;;;;;;;;;;10392805;28;20095;-73
2022/05/02 07:26:01;;;;;;;24.40;11.95;;;;;;;;;;10393274;28;20098;-73
2022/05/02 07:31:09;;;;;;;22.25;12.55;;;;;;;;;;10390446;28;20075;-74
2022/05/02 07:36:14;;;;;;;23.25;12.75;;;;;;;;;;10391749;28;20061;-72
2022/05/02 07:41:26;;;;;;;23.48;13.30;;;;;;;;;;10404370;28;20050;-75
2022/05/02 07:46:32;;;;;;;21.40;13.67;;;;;;;;;;10396402;28;20038;-75
2022/05/02 07:51:39;;;;;;;19.20;12.48;;;;;;;;;;10414178;28;20179;-73
2022/05/02 07:56:42;;;;;;;20.65;14.07;;;;;;;;;;10387267;28;20106;-74
2022/05/02 08:01:46;;;;;;;20.83;14.25;;;;;;;;;;10405095;28;20034;-74
2022/05/02 08:07:00;;;;;;;17.98;12.13;;;;;;;;;;10392184;28;20049;-74
2022/05/02 08:12:10;;;;;;;19.67;14.65;;;;;;;;;;10391413;28;20129;-72
2022/05/02 08:17:20;;;;;;;19.35;14.25;;;;;;;;;;10405777;28;20049;-72
2022/05/02 08:27:51;;;;;;;19.55;13.82;;;;;;;;;;10401981;28;20152;-74
2022/05/02 08:33:00;;;;;;;17.77;10.80;;;;;;;;;;10385056;28;20607;-73
2022/05/02 08:38:17;;;;;;;16.42;11.25;;;;;;;;;;10392371;28;20158;-73
2022/05/02 08:43:32;;;;;;;18.45;13.20;;;;;;;;;;10397470;28;20148;-71
2022/05/02 08:49:32;;;;;;;17.02;13.05;;;;;;;;;;10406148;28;20433;-70
2022/05/02 08:54:42;;;;;;;16.52;12.25;;;;;;;;;;10389720;28;20033;-74
2022/05/02 09:00:04;;;;;;;18.90;13.75;;;;;;;;;;10294134;28;20076;-75
2022/05/02 09:05:28;;;;;;;19.50;14.60;;;;;;;;;;10390245;28;20033;-73
2022/05/02 09:10:36;;;;;;;18.35;12.40;;;;;;;;;;10402588;28;20066;-74
2022/05/02 09:16:06;;;;;;;20.48;13.52;;;;;;;;;;10402061;28;20056;-73
2022/05/02 09:21:17;;;;;;;18.83;13.60;;;;;;;;;;10402551;28;20095;-73
2022/05/02 09:26:36;;;;;;;17.73;13.97;;;;;;;;;;10430759;28;20437;-73
2022/05/02 09:31:49;;;;;;;19.33;14.17;;;;;;;;;;10408843;28;20069;-73
2022/05/02 09:36:55;;;;;;;19.15;14.73;;;;;;;;;;10384233;28;20096;-73
2022/05/02 09:42:10;;;;;;;16.42;11.70;;;;;;;;;;10387603;28;20068;-74
2022/05/02 09:52:52;;;;;;;20.83;14.30;;;;;;;;;;10397270;28;20125;-73
2022/05/02 09:58:00;;;;;;;14.13;8.98;;;;;;;;;;10394434;28;20048;-71
2022/05/02 10:03:10;;;;;;;15.45;10.38;;;;;;;;;;10392433;28;20045;-71
2022/05/02 10:08:15;;;;;;;13.23;10.02;;;;;;;;;;10399584;28;20044;-72
2022/05/02 10:13:24;;;;;;;17.13;10.70;;;;;;;;;;10385568;28;20096;-72
2022/05/02 10:18:38;;;;;;;17.35;10.48;;;;;;;;;;10386398;28;20501;-72
2022/05/02 10:23:46;;;;;;;14.68;9.75;;;;;;;;;;10404819;28;20078;-72
2022/05/02 10:28:57;;;;;;;16.77;10.55;;;;;;;;;;10383018;28;20071;-71
2022/05/02 10:34:02;;;;;;;14.27;9.52;;;;;;;;;;10382865;28;20037;-71
2022/05/02 10:39:12;;;;;;;16.58;10.55;;;;;;;;;;10386290;28;20122;-71
2022/05/02 10:44:16;;;;;;;16.42;10.88;;;;;;;;;;10383297;28;20478;-72
2022/05/02 10:49:26;;;;;;;18.27;11.57;;;;;;;;;;10392382;28;20049;-72
2022/05/02 10:54:36;;;;;;;18.45;11.43;;;;;;;;;;10402315;28;20064;-71
2022/05/02 10:59:44;;;;;;;18.33;12.13;;;;;;;;;;10409871;28;20084;-71
2022/05/02 11:05:05;;;;;;;15.85;11.07;;;;;;;;;;10394543;28;20037;-72
2022/05/02 11:10:08;;;;;;;17.10;10.88;;;;;;;;;;10397419;28;20045;-71
2022/05/02 11:15:12;;;;;;;16.10;10.70;;;;;;;;;;10395970;28;20076;-72
2022/05/02 11:20:46;;;;;;;16.98;11.02;;;;;;;;;;10404390;28;20041;-72
2022/05/02 11:25:53;;;;;;;19.75;10.55;;;;;;;;;;10400769;28;20037;-72
2022/05/02 11:31:02;;;;;;;13.15;9.15;;;;;;;;;;10393407;28;20561;-73
2022/05/02 11:36:10;;;;;;;14.00;9.80;;;;;;;;;;10395799;28;20034;-75
2022/05/02 11:41:15;;;;;;;13.18;8.20;;;;;;;;;;10396009;28;20046;-75
2022/05/02 11:46:20;;;;;;;12.70;8.40;;;;;;;;;;10397781;28;20205;-75
2022/05/02 11:51:33;;;;;;;12.35;8.05;;;;;;;;;;10390569;28;20553;-74
2022/05/02 11:56:40;;;;;;;11.52;8.38;;;;;;;;;;10393911;28;20034;-75
2022/05/02 12:01:46;;;;;;;10.90;6.80;;;;;;;;;;10390480;28;20049;-75
2022/05/02 12:07:00;;;;;;;14.88;8.38;;;;;;;;;;10388798;28;20052;-75
2022/05/02 12:12:04;;;;;;;12.98;9.05;;;;;;;;;;10393326;28;20041;-76
2022/05/02 12:17:09;;;;;;;15.00;9.55;;;;;;;;;;10390737;28;20313;-75
2022/05/02 12:22:17;;;;;;;12.95;8.65;;;;;;;;;;10387998;28;20329;-75
2022/05/02 12:27:21;;;;;;;11.77;8.05;;;;;;;;;;10405377;28;20123;-74
2022/05/02 12:32:31;;;;;;;10.88;7.32;;;;;;;;;;10398612;28;20044;-74
2022/05/02 12:37:39;;;;;;;10.88;7.93;;;;;;;;;;10383024;28;20033;-74
2022/05/02 12:42:45;;;;;;;11.32;6.45;;;;;;;;;;10379362;28;20128;-73
2022/05/02 12:47:49;;;;;;;9.57;6.53;;;;;;;;;;10402035;28;20110;-75
2022/05/02 12:52:55;;;;;;;10.70;6.72;;;;;;;;;;10388382;28;20045;-75
2022/05/02 13:03:20;;;;;;;10.68;6.82;;;;;;;;;;10392035;28;20062;-75
2022/05/02 13:08:32;;;;;;;10.05;7.07;;;;;;;;;;10396989;28;20073;-75
2022/05/02 13:13:39;;;;;;;12.55;7.18;;;;;;;;;;10393098;28;20053;-76
2022/05/02 13:18:45;;;;;;;10.32;5.88;;;;;;;;;;10386678;28;20225;-76
2022/05/02 13:23:50;;;;;;;9.95;6.40;;;;;;;;;;10389783;28;20058;-75
2022/05/02 13:28:59;;;;;;;8.90;5.85;;;;;;;;;;10388160;28;20079;-75
2022/05/02 13:34:05;;;;;;;7.43;5.22;;;;;;;;;;10382730;28;20030;-76
2022/05/02 13:39:22;;;;;;;6.93;4.93;;;;;;;;;;10556556;27;1346989;-75
2022/05/02 13:44:29;;;;;;;7.45;5.18;;;;;;;;;;10561113;28;20039;-77
2022/05/02 13:49:42;;;;;;;8.75;4.70;;;;;;;;;;10579774;28;20297;-75
2022/05/02 13:54:49;;;;;;;6.55;4.35;;;;;;;;;;10561590;28;20032;-76
2022/05/02 13:59:55;;;;;;;5.13;3.50;;;;;;;;;;10578843;28;20044;-76
2022/05/02 14:05:05;;;;;;;6.53;3.97;;;;;;;;;;10554502;28;20418;-73
2022/05/02 14:10:11;;;;;;;6.45;3.63;;;;;;;;;;10568472;28;20491;-76
2022/05/02 14:15:15;;;;;;;4.85;3.35;;;;;;;;;;10577197;28;20032;-76
2022/05/02 14:20:21;;;;;;;3.65;2.72;;;;;;;;;;10577883;28;20042;-76
2022/05/02 14:25:27;;;;;;;4.38;3.00;;;;;;;;;;10576423;28;20031;-76
2022/05/02 14:30:36;;;;;;;4.75;3.10;;;;;;;;;;10570948;28;20048;-75
2022/05/02 14:35:41;;;;;;;5.15;3.60;;;;;;;;;;10554885;28;20036;-74
2022/05/02 14:40:47;;;;;;;6.30;4.10;;;;;;;;;;10551171;28;20127;-76
2022/05/02 14:45:50;;;;;;;5.90;3.55;;;;;;;;;;10571900;28;20700;-75
2022/05/02 14:50:56;;;;;;;5.90;4.32;;;;;;;;;;10546550;28;20032;-74
2022/05/02 14:56:00;;;;;;;6.25;3.70;;;;;;;;;;10524602;28;20040;-76
2022/05/02 15:01:06;;;;;;;5.85;3.92;;;;;;;;;;10543362;28;20031;-75
2022/05/02 15:06:09;;;;;;;7.88;5.45;;;;;;;;;;10529012;28;20132;-76
2022/05/02 15:11:23;;;;;;;8.13;5.32;;;;;;;;;;10527162;28;20051;-74
2022/05/02 15:16:34;;;;;;;6.97;4.40;;;;;;;;;;10533758;28;20119;-76
2022/05/02 15:21:40;;;;;;;8.50;5.25;;;;;;;;;;10534589;28;20450;-74
2022/05/02 15:26:50;;;;;;;7.75;5.40;;;;;;;;;;10548503;28;20039;-74
2022/05/02 15:37:19;;;;;;;9.60;5.57;;;;;;;;;;10528712;28;20346;-76
2022/05/02 15:42:24;;;;;;;9.52;5.95;;;;;;;;;;10550189;28;20036;-77
2022/05/02 15:47:37;;;;;;;8.30;5.25;;;;;;;;;;10525876;28;20031;-75
2022/05/02 15:52:54;;;;;;;9.00;4.97;;;;;;;;;;10545116;28;20113;-73
2022/05/02 15:57:58;;;;;;;6.85;4.20;;;;;;;;;;10522981;28;20044;-75
2022/05/02 16:03:08;;;;;;;7.28;4.28;;;;;;;;;;10542969;28;20071;-75
2022/05/02 16:13:35;;;;;;;7.60;4.45;;;;;;;;;;10545314;28;20622;-72
2022/05/02 16:18:39;;;;;;;8.30;4.60;;;;;;;;;;10530573;28;20073;-75
2022/05/02 16:23:44;;;;;;;13.63;7.30;;;;;;;;;;10534680;28;20035;-76
2022/05/02 16:28:46;;;;;;;;;;;;;;;;;;10527801;28;20113;-76
2022/05/02 16:33:58;;;;;;;7.10;4.72;;;;;;;;;;10537657;28;19980;-75
2022/05/02 16:39:02;;;;;;;8.20;4.93;;;;;;;;;;10535492;28;20042;-76
2022/05/02 16:44:05;;;;;;;7.85;4.72;;;;;;;;;;10523034;28;20083;-76
2022/05/02 16:49:10;;;;;;;6.47;3.80;;;;;;;;;;10523460;28;21000;-75
2022/05/02 16:54:21;;;;;;;7.63;4.10;;;;;;;;;;10528240;28;20068;-75
2022/05/02 16:59:24;;;;;;;6.28;3.85;;;;;;;;;;10538504;28;20032;-75
2022/05/02 17:04:29;;;;;;;5.22;3.03;;;;;;;;;;10534011;28;20071;-73
2022/05/02 17:09:32;;;;;;;5.93;3.63;;;;;;;;;;10542173;28;20271;-74
2022/05/02 17:14:35;;;;;;;4.25;2.78;;;;;;;;;;10539457;28;20035;-75
2022/05/02 17:19:40;;;;;;;6.50;3.30;;;;;;;;;;10530316;28;20445;-75
2022/05/02 17:24:44;;;;;;;6.10;3.10;;;;;;;;;;10542156;28;20039;-75
2022/05/02 17:29:48;;;;;;;4.95;3.00;;;;;;;;;;10526093;28;20105;-74
2022/05/02 17:34:52;;;;;;;;;;;;;;;;;;10530822;28;20402;-75
2022/05/02 17:40:17;;;;;;;4.53;2.85;;;;;;;;;;10520521;28;19966;-76
2022/05/02 17:45:21;;;;;;;4.90;3.10;;;;;;;;;;10524749;28;20035;-75
2022/05/02 17:50:24;;;;;;;5.72;3.45;;;;;;;;;;10537014;28;20474;-75
2022/05/02 17:55:30;;;;;;;6.20;4.03;;;;;;;;;;10524013;28;20100;-75
2022/05/02 18:00:33;;;;;;;5.88;3.20;;;;;;;;;;10542291;28;20407;-74
2022/05/02 18:05:42;;;;;;;4.60;2.80;;;;;;;;;;10542741;28;20059;-75
2022/05/02 18:10:49;;;;;;;3.95;2.65;;;;;;;;;;10527994;28;20048;-76
2022/05/02 18:15:53;;;;;;;2.40;1.77;;;;;;;;;;10539162;28;20039;-75
2022/05/02 18:20:58;;;;;;;3.33;1.85;;;;;;;;;;10522344;28;20535;-75
2022/05/02 18:26:03;;;;;;;2.95;1.80;;;;;;;;;;10543094;28;20028;-74
2022/05/02 18:31:08;;;;;;;3.70;1.98;;;;;;;;;;10525323;28;20108;-75
2022/05/02 18:36:13;;;;;;;3.40;2.50;;;;;;;;;;10552844;28;20056;-75
2022/05/02 18:41:28;;;;;;;4.32;2.47;;;;;;;;;;10525935;28;20059;-74
2022/05/02 18:57:16;;;;;;;4.03;2.42;;;;;;;;;;10542281;28;20044;-73
2022/05/02 19:02:20;;;;;;;4.43;1.95;;;;;;;;;;10548607;28;20031;-73
2022/05/02 19:07:26;;;;;;;3.97;2.10;;;;;;;;;;10543943;28;20554;-75
2022/05/02 19:12:34;;;;;;;7.05;2.90;;;;;;;;;;10530329;28;20051;-74
2022/05/02 19:17:38;;;;;;;6.78;3.25;;;;;;;;;;10524288;28;20043;-75
2022/05/02 19:22:41;;;;;;;;;;;;;;;;;;10531301;28;20044;-74
2022/05/02 19:27:50;;;;;;;4.85;2.20;;;;;;;;;;10524742;28;20350;-74
2022/05/02 19:32:59;;;;;;;6.53;2.92;;;;;;;;;;10542466;28;20071;-73
2022/05/02 19:43:28;;;;;;;8.13;2.92;;;;;;;;;;10545858;28;20101;-73
2022/05/02 19:48:32;;;;;;;2.78;1.70;;;;;;;;;;10536256;28;20507;-74
2022/05/02 19:53:36;;;;;;;3.47;1.75;;;;;;;;;;10517109;28;20085;-74
2022/05/02 19:58:41;;;;;;;3.88;1.52;;;;;;;;;;10524450;28;20129;-72
2022/05/02 20:03:44;;;;;;;4.25;1.67;;;;;;;;;;10540871;28;20028;-73
2022/05/02 20:08:46;;;;;;;2.22;1.55;;;;;;;;;;10542526;28;20075;-75
2022/05/02 20:13:55;;;;;;;5.30;1.90;;;;;;;;;;10549358;28;20047;-72
2022/05/02 20:18:58;;;;;;;3.97;1.80;;;;;;;;;;10520053;28;20047;-74
2022/05/02 20:24:02;;;;;;;2.75;1.75;;;;;;;;;;10539380;28;20443;-74
2022/05/02 20:29:07;;;;;;;2.15;1.63;;;;;;;;;;10539549;28;20067;-74
2022/05/02 20:39:45;;;;;;;2.80;1.88;;;;;;;;;;10373335;28;20073;-73
2022/05/02 20:44:55;;;;;;;4.65;2.13;;;;;;;;;;10494455;28;20105;-73
2022/05/02 20:49:58;;;;;;;3.47;1.90;;;;;;;;;;10520602;28;20071;-73
2022/05/02 20:55:01;;;;;;;2.88;1.90;;;;;;;;;;10522543;28;20036;-73
2022/05/02 21:00:07;;;;;;;3.45;1.73;;;;;;;;;;10540361;28;20036;-73
2022/05/02 21:05:10;;;;;;;4.40;2.03;;;;;;;;;;10517308;28;20141;-74
2022/05/02 21:10:14;;;;;;;3.72;2.20;;;;;;;;;;10536359;28;20483;-74
2022/05/02 21:15:23;;;;;;;5.07;2.38;;;;;;;;;;10522537;28;20075;-74
2022/05/02 21:20:28;;;;;;;5.30;2.55;;;;;;;;;;10532536;28;20036;-75
2022/05/02 21:25:34;;;;;;;6.53;2.80;;;;;;;;;;10552716;28;20040;-76
2022/05/02 21:30:48;;;;;;;5.60;2.30;;;;;;;;;;10543928;28;20027;-74
2022/05/02 21:35:51;;;;;;;4.00;2.17;;;;;;;;;;10525153;28;20407;-73
2022/05/02 21:40:54;;;;;;;4.00;2.30;;;;;;;;;;10520990;28;20032;-74
2022/05/02 21:45:58;;;;;;;4.80;2.57;;;;;;;;;;10530473;28;20692;-74
2022/05/02 21:51:01;;;;;;;5.47;2.70;;;;;;;;;;10523704;28;20032;-74
2022/05/02 21:56:04;;;;;;;4.20;2.20;;;;;;;;;;10535346;28;20036;-74
2022/05/02 22:01:08;;;;;;;4.20;2.37;;;;;;;;;;10557959;28;20399;-75
2022/05/02 22:06:14;;;;;;;4.70;2.42;;;;;;;;;;10546955;28;20039;-74
2022/05/02 22:11:18;;;;;;;5.43;2.40;;;;;;;;;;10552727;28;20495;-75
2022/05/02 22:16:23;;;;;;;6.30;2.70;;;;;;;;;;10548073;28;20089;-75
2022/05/02 22:21:27;;;;;;;5.03;2.25;;;;;;;;;;10551771;28;20550;-74
2022/05/02 22:26:30;;;;;;;5.28;2.45;;;;;;;;;;10540230;28;20074;-75
2022/05/02 22:31:35;;;;;;;6.35;2.45;;;;;;;;;;10546515;28;20342;-74
2022/05/02 22:36:37;;;;;;;4.38;2.33;;;;;;;;;;10530719;28;20365;-75
2022/05/02 22:41:41;;;;;;;4.30;2.70;;;;;;;;;;10529681;28;20040;-74
2022/05/02 22:46:45;;;;;;;4.77;2.07;;;;;;;;;;10549317;28;20032;-76
2022/05/02 22:51:48;;;;;;;3.30;2.00;;;;;;;;;;10535752;28;20039;-75
2022/05/02 22:56:52;;;;;;;6.87;3.23;;;;;;;;;;10543556;28;20517;-74
2022/05/02 23:02:05;;;;;;;4.60;1.63;;;;;;;;;;10548313;28;20040;-74
2022/05/02 23:07:17;;;;;;;5.03;2.30;;;;;;;;;;10530877;28;20043;-75
2022/05/02 23:12:21;;;;;;;6.53;3.03;;;;;;;;;;10536523;28;20084;-74
2022/05/02 23:17:26;;;;;;;7.18;3.00;;;;;;;;;;10543383;28;20488;-74
2022/05/02 23:22:30;;;;;;;5.90;2.97;;;;;;;;;;10531713;28;20493;-72
2022/05/02 23:27:33;;;;;;;6.43;2.90;;;;;;;;;;10559156;28;20031;-73
2022/05/02 23:32:42;;;;;;;5.70;3.37;;;;;;;;;;10533477;28;20072;-74
2022/05/02 23:38:03;;;;;;;8.52;3.53;;;;;;;;;;10527889;28;20554;-73
2022/05/02 23:43:07;;;;;;;6.18;2.53;;;;;;;;;;10529948;28;20154;-74
2022/05/02 23:48:22;;;;;;;6.30;3.30;;;;;;;;;;10529951;28;20526;-73
2022/05/02 23:53:43;;;;;;;7.93;3.72;;;;;;;;;;10530560;28;20165;-74
2022/05/02 23:58:52;;;;;;;8.68;3.83;;;;;;;;;;10534540;28;20063;-75
